Wetterdaten vom Freitag, 25. September 2020

Temperatur Taupunkt Windchill Luftfeuchte Luftdruck Solarstrahlung Regen ET
(Verdunstung von Wasser)
Wind
Max 13 °C
00:00
11.8 °C
00:00
12.9 °C
00:00
95%
04:00
998.3 hPa
12:30
304 W/m²
13:55
21.4 km/h
05:55 km/h
Durchschnitt 11.6 °C 8.6 °C 10.6 °C 82% 996.7 hPa 116 W/m² 0.6 mm 0.991 mm 6.4 km/h
Min 10.3 °C
07:40
5.9 °C
17:20
5.3 °C
12:10
67%
14:10
994.9 hPa
05:10
0 km/h (Böe)
01:50 km/h
Zeit
00:00 12.9 °C 11.8 °C 12.9 °C 93% 997.2 hPa 0 W/m² 0.0 mm 0.000 mm 5.9 km/h
00:05 12.9 °C 11.8 °C 12.9 °C 93% 997.5 hPa 0 W/m² 0.0 mm 0.000 mm 4.3 km/h
00:10 12.8 °C 11.7 °C 12.8 °C 93% 997.8 hPa 0 W/m² 0.0 mm 0.000 mm 3.1 km/h
00:15 12.8 °C 11.7 °C 12.8 °C 93% 997.8 hPa 0 W/m² 0.0 mm 0.000 mm 4.4 km/h
00:20 12.8 °C 11.7 °C 12.8 °C 93% 997.9 hPa 0 W/m² 0.0 mm 0.000 mm 4.9 km/h
00:25 12.8 °C 11.7 °C 12.8 °C 93% 997.8 hPa 0 W/m² 0.0 mm 0.000 mm 4.9 km/h
00:30 12.8 °C 11.7 °C 12.8 °C 93% 997.8 hPa 0 W/m² 0.0 mm 0.000 mm 2.0 km/h
00:35 12.8 °C 11.7 °C 12.8 °C 93% 997.7 hPa 0 W/m² 0.0 mm 0.000 mm 2.5 km/h
00:40 12.8 °C 11.7 °C 12.8 °C 93% 997.7 hPa 0 W/m² 0.0 mm 0.000 mm 2.9 km/h
00:45 12.8 °C 11.7 °C 12.8 °C 93% 997.8 hPa 0 W/m² 0.0 mm 0.000 mm 3.6 km/h
00:50 12.7 °C 11.6 °C 12.7 °C 93% 997.7 hPa 0 W/m² 0.0 mm 0.000 mm 3.4 km/h
00:55 12.7 °C 11.8 °C 12.7 °C 94% 997.6 hPa 0 W/m² 0.0 mm 0.000 mm 2.7 km/h
01:00 12.7 °C 11.8 °C 12.7 °C 94% 997.6 hPa 0 W/m² 0.0 mm 0.000 mm 2.4 km/h
01:05 12.7 °C 11.8 °C 12.7 °C 94% 997.4 hPa 0 W/m² 0.0 mm 0.000 mm 2.8 km/h
01:10 12.6 °C 11.7 °C 12.6 °C 94% 997.3 hPa 0 W/m² 0.0 mm 0.000 mm 3.0 km/h
01:15 12.6 °C 11.7 °C 12.6 °C 94% 997.1 hPa 0 W/m² 0.0 mm 0.000 mm 1.6 km/h
01:20 12.6 °C 11.7 °C 12.6 °C 94% 997.2 hPa 0 W/m² 0.0 mm 0.000 mm 1.6 km/h
01:25 12.6 °C 11.5 °C 12.6 °C 93% 997.1 hPa 0 W/m² 0.0 mm 0.000 mm 1.2 km/h
01:30 12.5 °C 11.6 °C 12.5 °C 94% 997.1 hPa 0 W/m² 0.0 mm 0.000 mm 0.7 km/h
01:35 12.5 °C 11.6 °C 12.5 °C 94% 997.0 hPa 0 W/m² 0.0 mm 0.000 mm 0.1 km/h
01:40 12.5 °C 11.6 °C 12.5 °C 94% 996.9 hPa 0 W/m² 0.0 mm 0.000 mm 1.2 km/h
01:45 12.4 °C 11.5 °C 12.4 °C 94% 996.8 hPa 0 W/m² 0.0 mm 0.000 mm 1.9 km/h
01:50 12.4 °C 11.5 °C 12.4 °C 94% 996.8 hPa 0 W/m² 0.0 mm 0.000 mm 0.0 km/h
01:55 12.4 °C 11.5 °C 12.4 °C 94% 996.7 hPa 0 W/m² 0.0 mm 0.000 mm 0.0 km/h
02:00 12.4 °C 11.5 °C 12.4 °C 94% 996.7 hPa 0 W/m² 0.0 mm 0.000 mm 0.0 km/h
02:05 12.4 °C 11.5 °C 12.4 °C 94% 996.7 hPa 0 W/m² 0.0 mm 0.000 mm 0.0 km/h
02:10 12.3 °C 11.4 °C 12.3 °C 94% 996.7 hPa 0 W/m² 0.0 mm 0.000 mm 0.0 km/h
02:15 12.3 °C 11.4 °C 12.3 °C 94% 996.6 hPa 0 W/m² 0.0 mm 0.000 mm 0.0 km/h
02:20 12.3 °C 11.4 °C 12.3 °C 94% 996.6 hPa 0 W/m² 0.0 mm 0.000 mm 0.0 km/h
02:25 12.3 °C 11.4 °C 12.3 °C 94% 996.6 hPa 0 W/m² 0.0 mm 0.000 mm 0.0 km/h
02:30 12.2 °C 11.3 °C 12.2 °C 94% 996.5 hPa 0 W/m² 0.0 mm 0.000 mm 0.0 km/h
02:35 12.2 °C 11.3 °C 12.2 °C 94% 996.3 hPa 0 W/m² 0.0 mm 0.000 mm 0.0 km/h
02:40 12.2 °C 11.3 °C 12.2 °C 94% 996.3 hPa 0 W/m² 0.0 mm 0.000 mm 0.0 km/h
02:45 12.2 °C 11.3 °C 12.2 °C 94% 996.4 hPa 0 W/m² 0.0 mm 0.000 mm 0.0 km/h
02:50 12.2 °C 11.3 °C 12.2 °C 94% 996.2 hPa 0 W/m² 0.0 mm 0.000 mm 0.0 km/h
02:55 12.2 °C 11.3 °C 12.2 °C 94% 996.2 hPa 0 W/m² 0.0 mm 0.000 mm 0.0 km/h
03:00 12.2 °C 11.3 °C 12.2 °C 94% 996.1 hPa 0 W/m² 0.0 mm 0.000 mm 0.0 km/h
03:05 12.3 °C 11.4 °C 12.3 °C 94% 995.9 hPa 0 W/m² 0.0 mm 0.000 mm 0.0 km/h
03:10 12.3 °C 11.4 °C 12.3 °C 94% 995.9 hPa 0 W/m² 0.0 mm 0.000 mm 0.0 km/h
03:15 12.3 °C 11.4 °C 12.3 °C 94% 995.8 hPa 0 W/m² 0.0 mm 0.000 mm 0.0 km/h
03:20 12.2 °C 11.3 °C 12.2 °C 94% 995.8 hPa 0 W/m² 0.0 mm 0.000 mm 0.0 km/h
03:25 12.2 °C 11.3 °C 12.2 °C 94% 995.9 hPa 0 W/m² 0.0 mm 0.000 mm 0.0 km/h
03:30 12.2 °C 11.3 °C 12.2 °C 94% 995.7 hPa 0 W/m² 0.0 mm 0.000 mm 0.0 km/h
03:35 12.2 °C 11.3 °C 12.2 °C 94% 995.5 hPa 0 W/m² 0.0 mm 0.000 mm 0.0 km/h
03:40 12.2 °C 11.3 °C 12.2 °C 94% 995.5 hPa 0 W/m² 0.0 mm 0.000 mm 0.0 km/h
03:45 12.2 °C 11.3 °C 12.2 °C 94% 995.5 hPa 0 W/m² 0.0 mm 0.000 mm 0.5 km/h
03:50 12.3 °C 11.4 °C 12.3 °C 94% 995.4 hPa 0 W/m² 0.0 mm 0.000 mm 3.2 km/h
03:55 12.3 °C 11.4 °C 12.3 °C 94% 995.4 hPa 0 W/m² 0.0 mm 0.000 mm 1.7 km/h
04:00 12.4 °C 11.6 °C 12.4 °C 95% 995.4 hPa 0 W/m² 0.0 mm 0.000 mm 4.0 km/h
04:05 12.4 °C 11.5 °C 12.4 °C 94% 995.3 hPa 0 W/m² 0.0 mm 0.000 mm 2.5 km/h
04:10 12.4 °C 11.5 °C 12.4 °C 94% 995.3 hPa 0 W/m² 0.0 mm 0.000 mm 0.0 km/h
04:15 12.5 °C 11.6 °C 12.5 °C 94% 995.3 hPa 0 W/m² 0.0 mm 0.000 mm 0.9 km/h
04:20 12.5 °C 11.6 °C 12.5 °C 94% 995.4 hPa 0 W/m² 0.0 mm 0.000 mm 1.0 km/h
04:25 12.6 °C 11.7 °C 12.6 °C 94% 995.4 hPa 0 W/m² 0.0 mm 0.000 mm 3.0 km/h
04:30 12.7 °C 11.8 °C 12.7 °C 94% 995.5 hPa 0 W/m² 0.0 mm 0.000 mm 2.1 km/h
04:35 12.7 °C 11.8 °C 12.7 °C 94% 995.2 hPa 0 W/m² 0.0 mm 0.000 mm 2.4 km/h
04:40 12.7 °C 11.8 °C 12.7 °C 94% 995.1 hPa 0 W/m² 0.0 mm 0.000 mm 3.6 km/h
04:45 12.7 °C 11.8 °C 12.7 °C 94% 995.2 hPa 0 W/m² 0.0 mm 0.000 mm 2.0 km/h
04:50 12.7 °C 11.8 °C 12.7 °C 94% 995.0 hPa 0 W/m² 0.0 mm 0.000 mm 0.6 km/h
04:55 12.7 °C 11.8 °C 12.7 °C 94% 995.1 hPa 0 W/m² 0.0 mm 0.000 mm 2.0 km/h
05:00 12.6 °C 11.7 °C 12.6 °C 94% 995.0 hPa 0 W/m² 0.0 mm 0.000 mm 3.0 km/h
05:05 12.7 °C 11.8 °C 12.3 °C 94% 995.0 hPa 0 W/m² 0.0 mm 0.000 mm 7.0 km/h
05:10 12.7 °C 11.8 °C 12.6 °C 94% 994.9 hPa 0 W/m² 0.0 mm 0.000 mm 6.6 km/h
05:15 12.7 °C 11.8 °C 12.7 °C 94% 995.0 hPa 0 W/m² 0.0 mm 0.000 mm 5.3 km/h
05:20 12.7 °C 11.6 °C 12.5 °C 93% 995.1 hPa 0 W/m² 0.0 mm 0.000 mm 6.7 km/h
05:25 12.7 °C 11.6 °C 12.7 °C 93% 995.0 hPa 0 W/m² 0.0 mm 0.000 mm 5.7 km/h
05:30 12.7 °C 11.6 °C 12.7 °C 93% 994.9 hPa 0 W/m² 0.0 mm 0.000 mm 3.0 km/h
05:35 12.7 °C 11.6 °C 11.7 °C 93% 994.9 hPa 0 W/m² 0.0 mm 0.000 mm 8.0 km/h
05:40 12.7 °C 11.6 °C 11.9 °C 93% 995.2 hPa 0 W/m² 0.0 mm 0.000 mm 7.6 km/h
05:45 12.7 °C 11.6 °C 11.4 °C 93% 995.1 hPa 0 W/m² 0.0 mm 0.000 mm 8.5 km/h
05:50 12.7 °C 11.6 °C 11.5 °C 93% 995.7 hPa 0 W/m² 0.0 mm 0.000 mm 8.4 km/h
05:55 12.4 °C 10.5 °C 6.0 °C 88% 995.5 hPa 0 W/m² 0.0 mm 0.000 mm 21.4 km/h
06:00 12.3 °C 9.9 °C 8.9 °C 85% 995.7 hPa 0 W/m² 0.0 mm 0.000 mm 12.6 km/h
06:05 12.2 °C 9.8 °C 9.6 °C 85% 995.6 hPa 0 W/m² 0.0 mm 0.000 mm 10.8 km/h
06:10 12.0 °C 9.7 °C 10.8 °C 86% 995.6 hPa 0 W/m² 0.0 mm 0.000 mm 8.3 km/h
06:15 11.8 °C 9.5 °C 11.3 °C 86% 995.5 hPa 0 W/m² 0.0 mm 0.000 mm 7.2 km/h
06:20 11.6 °C 9.3 °C 11.6 °C 86% 995.7 hPa 0 W/m² 0.0 mm 0.000 mm 6.4 km/h
06:25 11.4 °C 9.3 °C 11.4 °C 87% 995.9 hPa 0 W/m² 0.0 mm 0.000 mm 5.4 km/h
06:30 11.4 °C 9.3 °C 11.4 °C 87% 995.5 hPa 0 W/m² 0.0 mm 0.000 mm 3.5 km/h
06:35 11.3 °C 9.4 °C 11.3 °C 88% 995.8 hPa 0 W/m² 0.3 mm 0.000 mm 4.4 km/h
06:40 11.2 °C 9.5 °C 11.2 °C 89% 995.8 hPa 0 W/m² 0.3 mm 0.000 mm 4.0 km/h
06:45 11.1 °C 9.4 °C 10.6 °C 89% 996.1 hPa 0 W/m² 0.0 mm 0.000 mm 7.1 km/h
06:50 10.9 °C 9.0 °C 9.8 °C 88% 996.0 hPa 0 W/m² 0.0 mm 0.000 mm 8.0 km/h
06:55 10.8 °C 8.9 °C 10.8 °C 88% 996.1 hPa 0 W/m² 0.0 mm 0.000 mm 5.5 km/h
07:00 10.7 °C 8.8 °C 10.7 °C 88% 996.1 hPa 0 W/m² 0.0 mm 0.000 mm 5.7 km/h
07:05 10.7 °C 9.0 °C 10.7 °C 89% 996.0 hPa 0 W/m² 0.0 mm 0.000 mm 5.2 km/h
07:10 10.6 °C 8.9 °C 10.6 °C 89% 996.1 hPa 0 W/m² 0.0 mm 0.000 mm 2.7 km/h
07:15 10.6 °C 8.9 °C 10.6 °C 89% 996.1 hPa 0 W/m² 0.0 mm 0.000 mm 3.7 km/h
07:20 10.5 °C 8.6 °C 10.5 °C 88% 996.2 hPa 1 W/m² 0.0 mm 0.000 mm 6.5 km/h
07:25 10.4 °C 8.5 °C 10.4 °C 88% 996.1 hPa 8 W/m² 0.0 mm 0.000 mm 3.9 km/h
07:30 10.4 °C 8.5 °C 10.4 °C 88% 996.2 hPa 13 W/m² 0.0 mm 0.000 mm 1.9 km/h
07:35 10.4 °C 8.7 °C 10.4 °C 89% 996.1 hPa 17 W/m² 0.0 mm 0.000 mm 1.2 km/h
07:40 10.4 °C 8.7 °C 10.4 °C 89% 996.3 hPa 16 W/m² 0.0 mm 0.000 mm 5.3 km/h
07:45 10.3 °C 8.6 °C 10.3 °C 89% 996.2 hPa 20 W/m² 0.0 mm 0.000 mm 4.3 km/h
07:50 10.3 °C 8.6 °C 10.3 °C 89% 996.2 hPa 22 W/m² 0.0 mm 0.000 mm 5.5 km/h
07:55 10.3 °C 8.6 °C 10.3 °C 89% 996.5 hPa 26 W/m² 0.0 mm 0.000 mm 6.5 km/h
08:00 10.3 °C 8.6 °C 10.3 °C 89% 996.6 hPa 33 W/m² 0.0 mm 0.025 mm 5.3 km/h
08:05 10.3 °C 8.6 °C 10.3 °C 89% 996.6 hPa 44 W/m² 0.0 mm 0.000 mm 5.6 km/h
08:10 10.3 °C 8.6 °C 10.3 °C 89% 996.6 hPa 59 W/m² 0.0 mm 0.000 mm 6.3 km/h
08:15 10.3 °C 8.6 °C 8.8 °C 89% 996.7 hPa 53 W/m² 0.0 mm 0.000 mm 8.5 km/h
08:20 10.3 °C 8.6 °C 9.2 °C 89% 996.9 hPa 50 W/m² 0.0 mm 0.000 mm 8.0 km/h
08:25 10.3 °C 8.7 °C 10.3 °C 90% 996.7 hPa 54 W/m² 0.0 mm 0.000 mm 6.2 km/h
08:30 10.3 °C 8.7 °C 10.3 °C 90% 996.7 hPa 59 W/m² 0.0 mm 0.000 mm 5.8 km/h
08:35 10.3 °C 8.7 °C 9.7 °C 90% 996.6 hPa 64 W/m² 0.0 mm 0.000 mm 7.2 km/h
08:40 10.4 °C 8.8 °C 8.5 °C 90% 996.5 hPa 71 W/m² 0.0 mm 0.000 mm 9.2 km/h
08:45 10.4 °C 8.8 °C 10.1 °C 90% 996.4 hPa 90 W/m² 0.0 mm 0.000 mm 6.8 km/h
08:50 10.5 °C 8.9 °C 8.8 °C 90% 996.4 hPa 108 W/m² 0.0 mm 0.000 mm 8.9 km/h
08:55 10.6 °C 8.9 °C 9.0 °C 89% 996.4 hPa 111 W/m² 0.0 mm 0.000 mm 8.7 km/h
09:00 10.7 °C 9.0 °C 7.2 °C 89% 996.4 hPa 152 W/m² 0.0 mm 0.051 mm 12.3 km/h
09:05 10.8 °C 9.1 °C 8.4 °C 89% 996.4 hPa 160 W/m² 0.0 mm 0.000 mm 10.2 km/h
09:10 10.8 °C 8.9 °C 9.8 °C 88% 996.3 hPa 132 W/m² 0.0 mm 0.000 mm 7.9 km/h
09:15 10.8 °C 8.9 °C 9.1 °C 88% 996.1 hPa 105 W/m² 0.0 mm 0.000 mm 8.9 km/h
09:20 10.8 °C 8.7 °C 8.9 °C 87% 996.1 hPa 107 W/m² 0.0 mm 0.000 mm 9.3 km/h
09:25 10.9 °C 9.0 °C 10.5 °C 88% 996.1 hPa 187 W/m² 0.0 mm 0.000 mm 7.0 km/h
09:30 11.1 °C 9.0 °C 10.1 °C 87% 996.2 hPa 140 W/m² 0.0 mm 0.000 mm 7.8 km/h
09:35 11.0 °C 8.7 °C 8.8 °C 86% 996.3 hPa 104 W/m² 0.0 mm 0.000 mm 9.9 km/h
09:40 10.9 °C 8.7 °C 7.7 °C 86% 996.6 hPa 91 W/m² 0.0 mm 0.000 mm 11.6 km/h
09:45 10.8 °C 8.6 °C 9.2 °C 86% 996.7 hPa 88 W/m² 0.0 mm 0.000 mm 8.7 km/h
09:50 10.7 °C 8.5 °C 7.6 °C 86% 996.8 hPa 77 W/m² 0.0 mm 0.000 mm 11.5 km/h
09:55 10.7 °C 8.3 °C 7.0 °C 85% 996.8 hPa 72 W/m² 0.0 mm 0.000 mm 12.6 km/h
10:00 10.6 °C 8.4 °C 8.1 °C 86% 996.9 hPa 75 W/m² 0.0 mm 0.076 mm 10.3 km/h
10:05 10.5 °C 8.3 °C 10.3 °C 86% 997.0 hPa 88 W/m² 0.0 mm 0.000 mm 6.7 km/h
10:10 10.5 °C 8.3 °C 8.3 °C 86% 997.1 hPa 111 W/m² 0.0 mm 0.000 mm 9.8 km/h
10:15 10.5 °C 8.3 °C 8.8 °C 86% 997.2 hPa 111 W/m² 0.0 mm 0.000 mm 8.9 km/h
10:20 10.6 °C 8.4 °C 9.8 °C 86% 997.1 hPa 112 W/m² 0.0 mm 0.000 mm 7.5 km/h
10:25 10.6 °C 8.2 °C 7.9 °C 85% 997.1 hPa 119 W/m² 0.0 mm 0.000 mm 10.6 km/h
10:30 10.6 °C 8.4 °C 9.4 °C 86% 997.1 hPa 154 W/m² 0.0 mm 0.000 mm 8.2 km/h
10:35 10.7 °C 8.1 °C 7.6 °C 84% 997.3 hPa 174 W/m² 0.0 mm 0.000 mm 11.5 km/h
10:40 10.8 °C 8.2 °C 9.0 °C 84% 997.5 hPa 244 W/m² 0.0 mm 0.000 mm 9.1 km/h
10:45 11.0 °C 8.4 °C 8.6 °C 84% 997.6 hPa 249 W/m² 0.0 mm 0.000 mm 10.1 km/h
10:50 11.2 °C 8.2 °C 10.2 °C 82% 997.7 hPa 201 W/m² 0.0 mm 0.000 mm 7.9 km/h
10:55 11.2 °C 8.1 °C 8.0 °C 81% 997.4 hPa 179 W/m² 0.0 mm 0.000 mm 11.7 km/h
11:00 11.2 °C 7.9 °C 7.7 °C 80% 997.7 hPa 162 W/m² 0.0 mm 0.102 mm 12.4 km/h
11:05 11.2 °C 7.5 °C 6.1 °C 78% 997.6 hPa 150 W/m² 0.0 mm 0.000 mm 16.4 km/h
11:10 11.2 °C 7.5 °C 7.3 °C 78% 997.7 hPa 159 W/m² 0.0 mm 0.000 mm 13.4 km/h
11:15 11.2 °C 7.5 °C 8.5 °C 78% 997.5 hPa 166 W/m² 0.0 mm 0.000 mm 10.7 km/h
11:20 11.2 °C 7.3 °C 8.2 °C 77% 997.6 hPa 172 W/m² 0.0 mm 0.000 mm 11.3 km/h
11:25 11.3 °C 7.2 °C 6.6 °C 76% 997.7 hPa 176 W/m² 0.0 mm 0.000 mm 15.4 km/h
11:30 11.3 °C 7.0 °C 7.8 °C 75% 997.6 hPa 184 W/m² 0.0 mm 0.000 mm 12.4 km/h
11:35 11.3 °C 7.2 °C 8.5 °C 76% 997.9 hPa 216 W/m² 0.0 mm 0.000 mm 11.0 km/h
11:40 11.5 °C 7.8 °C 9.5 °C 78% 997.7 hPa 254 W/m² 0.0 mm 0.000 mm 9.5 km/h
11:45 11.6 °C 7.7 °C 10.2 °C 77% 997.7 hPa 254 W/m² 0.0 mm 0.000 mm 8.5 km/h
11:50 11.7 °C 7.6 °C 8.2 °C 76% 997.7 hPa 236 W/m² 0.0 mm 0.000 mm 12.6 km/h
11:55 11.7 °C 7.6 °C 7.6 °C 76% 997.9 hPa 242 W/m² 0.0 mm 0.000 mm 14.0 km/h
12:00 11.7 °C 7.6 °C 7.3 °C 76% 997.9 hPa 226 W/m² 0.0 mm 0.127 mm 14.7 km/h
12:05 11.7 °C 7.0 °C 7.9 °C 73% 997.9 hPa 203 W/m² 0.0 mm 0.000 mm 13.3 km/h
12:10 11.6 °C 6.7 °C 5.3 °C 72% 997.9 hPa 181 W/m² 0.0 mm 0.000 mm 20.2 km/h
12:15 11.5 °C 6.6 °C 6.9 °C 72% 998.1 hPa 184 W/m² 0.0 mm 0.000 mm 15.1 km/h
12:20 11.4 °C 6.5 °C 6.1 °C 72% 998.2 hPa 210 W/m² 0.0 mm 0.000 mm 17.0 km/h
12:25 11.4 °C 6.7 °C 7.7 °C 73% 998.2 hPa 213 W/m² 0.0 mm 0.000 mm 13.0 km/h
12:30 11.4 °C 6.7 °C 6.6 °C 73% 998.3 hPa 228 W/m² 0.0 mm 0.000 mm 15.5 km/h
12:35 11.5 °C 7.0 °C 9.4 °C 74% 998.1 hPa 212 W/m² 0.0 mm 0.000 mm 9.8 km/h
12:40 11.6 °C 7.1 °C 9.1 °C 74% 998.0 hPa 214 W/m² 0.0 mm 0.000 mm 10.4 km/h
12:45 11.6 °C 7.1 °C 10.0 °C 74% 997.9 hPa 188 W/m² 0.0 mm 0.000 mm 8.9 km/h
12:50 11.6 °C 6.9 °C 7.7 °C 73% 998.0 hPa 168 W/m² 0.0 mm 0.000 mm 13.4 km/h
12:55 11.6 °C 6.9 °C 7.2 °C 73% 997.9 hPa 158 W/m² 0.0 mm 0.000 mm 14.6 km/h
13:00 11.6 °C 7.1 °C 8.3 °C 74% 997.8 hPa 131 W/m² 0.0 mm 0.127 mm 12.1 km/h
13:05 11.6 °C 7.1 °C 11.4 °C 74% 997.9 hPa 176 W/m² 0.0 mm 0.000 mm 6.7 km/h
13:10 11.7 °C 7.2 °C 11.4 °C 74% 997.7 hPa 169 W/m² 0.0 mm 0.000 mm 6.9 km/h
13:15 11.7 °C 6.8 °C 8.0 °C 72% 997.5 hPa 212 W/m² 0.0 mm 0.000 mm 13.0 km/h
13:20 11.8 °C 7.3 °C 11.8 °C 74% 997.4 hPa 226 W/m² 0.0 mm 0.000 mm 5.3 km/h
13:25 11.8 °C 7.1 °C 11.2 °C 73% 997.3 hPa 201 W/m² 0.0 mm 0.000 mm 7.3 km/h
13:30 11.8 °C 6.9 °C 8.7 °C 72% 997.2 hPa 193 W/m² 0.0 mm 0.000 mm 11.8 km/h
13:35 11.8 °C 6.5 °C 7.4 °C 70% 997.2 hPa 222 W/m² 0.0 mm 0.000 mm 14.7 km/h
13:40 11.8 °C 6.7 °C 9.4 °C 71% 997.3 hPa 219 W/m² 0.0 mm 0.000 mm 10.3 km/h
13:45 11.9 °C 6.8 °C 9.7 °C 71% 997.3 hPa 204 W/m² 0.0 mm 0.000 mm 9.9 km/h
13:50 11.9 °C 6.4 °C 9.4 °C 69% 997.2 hPa 248 W/m² 0.0 mm 0.000 mm 10.6 km/h
13:55 12.1 °C 6.6 °C 8.6 °C 69% 997.2 hPa 304 W/m² 0.0 mm 0.000 mm 12.7 km/h
14:00 12.1 °C 6.6 °C 9.1 °C 69% 997.3 hPa 294 W/m² 0.0 mm 0.152 mm 11.6 km/h
14:05 12.1 °C 6.4 °C 8.1 °C 68% 997.4 hPa 243 W/m² 0.0 mm 0.000 mm 14.0 km/h
14:10 12.1 °C 6.2 °C 7.1 °C 67% 997.4 hPa 176 W/m² 0.0 mm 0.000 mm 16.5 km/h
14:15 11.9 °C 6.2 °C 7.8 °C 68% 997.5 hPa 127 W/m² 0.0 mm 0.000 mm 14.0 km/h
14:20 11.8 °C 6.3 °C 8.6 °C 69% 997.5 hPa 98 W/m² 0.0 mm 0.000 mm 12.0 km/h
14:25 11.7 °C 6.2 °C 9.1 °C 69% 997.4 hPa 87 W/m² 0.0 mm 0.000 mm 10.7 km/h
14:30 11.7 °C 6.4 °C 10.0 °C 70% 997.1 hPa 120 W/m² 0.0 mm 0.000 mm 9.1 km/h
14:35 11.6 °C 6.1 °C 8.6 °C 69% 996.9 hPa 139 W/m² 0.0 mm 0.000 mm 11.4 km/h
14:40 11.6 °C 6.3 °C 11.1 °C 70% 997.1 hPa 125 W/m² 0.0 mm 0.000 mm 7.1 km/h
14:45 11.7 °C 6.6 °C 11.7 °C 71% 997.3 hPa 136 W/m² 0.0 mm 0.000 mm 6.4 km/h
14:50 11.7 °C 6.4 °C 11.5 °C 70% 997.2 hPa 163 W/m² 0.0 mm 0.000 mm 6.7 km/h
14:55 11.7 °C 6.4 °C 11.7 °C 70% 997.3 hPa 124 W/m² 0.0 mm 0.000 mm 5.8 km/h
15:00 11.7 °C 6.4 °C 11.7 °C 70% 997.3 hPa 84 W/m² 0.0 mm 0.102 mm 5.9 km/h
15:05 11.7 °C 6.4 °C 11.7 °C 70% 997.3 hPa 63 W/m² 0.0 mm 0.000 mm 5.4 km/h
15:10 11.7 °C 6.2 °C 10.5 °C 69% 997.2 hPa 68 W/m² 0.0 mm 0.000 mm 8.3 km/h
15:15 11.6 °C 6.1 °C 8.9 °C 69% 997.1 hPa 116 W/m² 0.0 mm 0.000 mm 10.8 km/h
15:20 11.6 °C 6.5 °C 9.8 °C 71% 997.2 hPa 113 W/m² 0.0 mm 0.000 mm 9.2 km/h
15:25 11.6 °C 6.1 °C 9.5 °C 69% 997.1 hPa 103 W/m² 0.0 mm 0.000 mm 9.8 km/h
15:30 11.5 °C 6.2 °C 10.6 °C 70% 997.3 hPa 92 W/m² 0.0 mm 0.000 mm 7.7 km/h
15:35 11.5 °C 6.4 °C 8.8 °C 71% 997.3 hPa 99 W/m² 0.0 mm 0.000 mm 10.9 km/h
15:40 11.5 °C 6.4 °C 11.3 °C 71% 997.3 hPa 101 W/m² 0.0 mm 0.000 mm 6.7 km/h
15:45 11.6 °C 6.1 °C 11.6 °C 69% 997.3 hPa 99 W/m² 0.0 mm 0.000 mm 6.4 km/h
15:50 11.6 °C 6.5 °C 11.6 °C 71% 997.3 hPa 99 W/m² 0.0 mm 0.000 mm 5.0 km/h
15:55 11.6 °C 6.3 °C 11.1 °C 70% 997.0 hPa 99 W/m² 0.0 mm 0.000 mm 7.2 km/h
16:00 11.6 °C 6.3 °C 11.6 °C 70% 997.0 hPa 92 W/m² 0.0 mm 0.076 mm 5.0 km/h
16:05 11.6 °C 6.3 °C 11.6 °C 70% 997.0 hPa 84 W/m² 0.0 mm 0.000 mm 5.0 km/h
16:10 11.6 °C 6.3 °C 11.6 °C 70% 997.1 hPa 82 W/m² 0.0 mm 0.000 mm 3.3 km/h
16:15 11.6 °C 6.1 °C 11.4 °C 69% 997.2 hPa 81 W/m² 0.0 mm 0.000 mm 6.7 km/h
16:20 11.6 °C 6.1 °C 11.6 °C 69% 997.3 hPa 84 W/m² 0.0 mm 0.000 mm 5.2 km/h
16:25 11.6 °C 6.1 °C 11.6 °C 69% 997.3 hPa 86 W/m² 0.0 mm 0.000 mm 6.0 km/h
16:30 11.6 °C 6.1 °C 11.6 °C 69% 997.0 hPa 82 W/m² 0.0 mm 0.000 mm 4.3 km/h
16:35 11.6 °C 6.1 °C 11.6 °C 69% 997.0 hPa 79 W/m² 0.0 mm 0.000 mm 4.6 km/h
16:40 11.6 °C 6.1 °C 11.6 °C 69% 997.0 hPa 77 W/m² 0.0 mm 0.000 mm 2.0 km/h
16:45 11.6 °C 6.1 °C 11.6 °C 69% 997.1 hPa 79 W/m² 0.0 mm 0.000 mm 4.1 km/h
16:50 11.6 °C 6.3 °C 11.6 °C 70% 996.9 hPa 78 W/m² 0.0 mm 0.000 mm 3.9 km/h
16:55 11.6 °C 6.1 °C 11.6 °C 69% 997.1 hPa 72 W/m² 0.0 mm 0.000 mm 4.9 km/h
17:00 11.6 °C 6.1 °C 11.6 °C 69% 997.1 hPa 66 W/m² 0.0 mm 0.051 mm 4.8 km/h
17:05 11.6 °C 6.1 °C 11.3 °C 69% 996.9 hPa 66 W/m² 0.0 mm 0.000 mm 6.8 km/h
17:10 11.5 °C 6.0 °C 11.2 °C 69% 997.1 hPa 66 W/m² 0.0 mm 0.000 mm 6.9 km/h
17:15 11.5 °C 6.0 °C 11.5 °C 69% 996.7 hPa 64 W/m² 0.0 mm 0.000 mm 4.4 km/h
17:20 11.4 °C 5.9 °C 9.6 °C 69% 997.0 hPa 68 W/m² 0.0 mm 0.000 mm 9.1 km/h
17:25 11.4 °C 6.1 °C 11.4 °C 70% 996.8 hPa 71 W/m² 0.0 mm 0.000 mm 6.3 km/h
17:30 11.4 °C 6.3 °C 11.4 °C 71% 996.9 hPa 74 W/m² 0.0 mm 0.000 mm 4.5 km/h
17:35 11.4 °C 6.3 °C 10.9 °C 71% 996.9 hPa 71 W/m² 0.0 mm 0.000 mm 7.2 km/h
17:40 11.3 °C 6.2 °C 11.3 °C 71% 996.9 hPa 69 W/m² 0.0 mm 0.000 mm 6.5 km/h
17:45 11.3 °C 6.4 °C 11.3 °C 72% 996.8 hPa 67 W/m² 0.0 mm 0.000 mm 4.5 km/h
17:50 11.3 °C 6.4 °C 11.3 °C 72% 996.7 hPa 72 W/m² 0.0 mm 0.000 mm 4.5 km/h
17:55 11.3 °C 6.4 °C 11.3 °C 72% 996.9 hPa 74 W/m² 0.0 mm 0.000 mm 4.0 km/h
18:00 11.3 °C 6.6 °C 11.0 °C 73% 996.9 hPa 73 W/m² 0.0 mm 0.051 mm 6.8 km/h
18:05 11.2 °C 6.5 °C 10.6 °C 73% 996.8 hPa 61 W/m² 0.0 mm 0.000 mm 7.3 km/h
18:10 11.2 °C 6.5 °C 11.2 °C 73% 996.7 hPa 49 W/m² 0.0 mm 0.000 mm 5.4 km/h
18:15 11.2 °C 6.5 °C 10.7 °C 73% 996.7 hPa 46 W/m² 0.0 mm 0.000 mm 7.1 km/h
18:20 11.2 °C 6.7 °C 10.1 °C 74% 996.6 hPa 41 W/m² 0.0 mm 0.000 mm 8.0 km/h
18:25 11.1 °C 6.6 °C 10.5 °C 74% 996.6 hPa 39 W/m² 0.0 mm 0.000 mm 7.2 km/h
18:30 11.1 °C 6.6 °C 11.1 °C 74% 996.7 hPa 32 W/m² 0.0 mm 0.000 mm 6.4 km/h
18:35 11.0 °C 6.5 °C 11.0 °C 74% 996.5 hPa 28 W/m² 0.0 mm 0.000 mm 5.0 km/h
18:40 10.9 °C 6.6 °C 10.9 °C 75% 996.6 hPa 24 W/m² 0.0 mm 0.000 mm 3.4 km/h
18:45 10.9 °C 6.6 °C 10.9 °C 75% 997.0 hPa 20 W/m² 0.0 mm 0.000 mm 5.3 km/h
18:50 10.9 °C 6.6 °C 10.9 °C 75% 996.7 hPa 18 W/m² 0.0 mm 0.000 mm 4.6 km/h
18:55 10.8 °C 6.5 °C 10.4 °C 75% 996.8 hPa 14 W/m² 0.0 mm 0.000 mm 7.0 km/h
19:00 10.8 °C 6.7 °C 10.8 °C 76% 996.8 hPa 9 W/m² 0.0 mm 0.025 mm 3.4 km/h
19:05 10.8 °C 6.7 °C 10.8 °C 76% 996.7 hPa 5 W/m² 0.0 mm 0.000 mm 3.1 km/h
19:10 10.7 °C 6.6 °C 10.7 °C 76% 996.9 hPa 2 W/m² 0.0 mm 0.000 mm 3.1 km/h
19:15 10.7 °C 6.6 °C 10.7 °C 76% 996.7 hPa 0 W/m² 0.0 mm 0.000 mm 4.2 km/h
19:20 10.7 °C 6.6 °C 10.7 °C 76% 996.3 hPa 0 W/m² 0.0 mm 0.000 mm 6.5 km/h
19:25 10.7 °C 6.8 °C 10.7 °C 77% 996.6 hPa 0 W/m² 0.0 mm 0.000 mm 4.4 km/h
19:30 10.6 °C 6.5 °C 10.6 °C 76% 996.7 hPa 0 W/m² 0.0 mm 0.000 mm 3.2 km/h
19:35 10.6 °C 6.7 °C 10.6 °C 77% 996.8 hPa 0 W/m² 0.0 mm 0.000 mm 3.6 km/h
19:40 10.6 °C 6.5 °C 10.6 °C 76% 996.9 hPa 0 W/m² 0.0 mm 0.000 mm 4.4 km/h
19:45 10.6 °C 6.5 °C 10.6 °C 76% 996.9 hPa 0 W/m² 0.0 mm 0.000 mm 5.2 km/h
19:50 10.6 °C 6.7 °C 10.6 °C 77% 997.0 hPa 0 W/m² 0.0 mm 0.000 mm 3.1 km/h
19:55 10.6 °C 6.7 °C 10.6 °C 77% 997.0 hPa 0 W/m² 0.0 mm 0.000 mm 4.2 km/h
20:00 10.6 °C 6.7 °C 10.6 °C 77% 997.2 hPa 0 W/m² 0.0 mm 0.026 mm 5.4 km/h
20:05 10.6 °C 6.7 °C 10.6 °C 77% 997.1 hPa 0 W/m² 0.0 mm 0.000 mm 5.0 km/h
20:10 10.6 °C 6.7 °C 10.6 °C 77% 997.1 hPa 0 W/m² 0.0 mm 0.000 mm 6.5 km/h
20:15 10.6 °C 6.9 °C 10.6 °C 78% 997.2 hPa 0 W/m² 0.0 mm 0.000 mm 4.0 km/h
20:20 10.6 °C 6.9 °C 10.6 °C 78% 997.0 hPa 0 W/m² 0.0 mm 0.000 mm 3.6 km/h
20:25 10.5 °C 6.8 °C 10.5 °C 78% 997.0 hPa 0 W/m² 0.0 mm 0.000 mm 5.9 km/h
20:30 10.4 °C 6.9 °C 9.1 °C 79% 997.2 hPa 0 W/m² 0.0 mm 0.000 mm 8.2 km/h